createdAt,value
2019-02-05T00:01:28.881Z,-0.80
2019-02-05T00:04:00.432Z,-0.70
2019-02-05T00:06:32.080Z,-0.80
2019-02-05T00:09:03.640Z,-0.70
2019-02-05T00:11:35.278Z,-0.70
2019-02-05T00:14:05.832Z,-0.70
2019-02-05T00:16:36.352Z,-0.80
2019-02-05T00:19:08.352Z,-0.80
2019-02-05T00:21:38.832Z,-0.70
2019-02-05T00:24:10.443Z,-0.80
2019-02-05T00:26:42.112Z,-0.90
2019-02-05T00:29:12.607Z,-0.90
2019-02-05T00:31:44.232Z,-0.80
2019-02-05T00:34:16.441Z,-0.60
2019-02-05T00:36:46.920Z,-0.70
2019-02-05T00:39:20.912Z,-0.70
2019-02-05T00:41:51.231Z,-0.60
2019-02-05T00:44:22.952Z,-0.70
2019-02-05T00:46:54.600Z,-1.00
2019-02-05T00:49:26.231Z,-1.10
2019-02-05T00:51:57.832Z,-1.00
2019-02-05T00:54:30.800Z,-1.10
2019-02-05T00:57:02.351Z,-1.00
2019-02-05T00:59:34.033Z,-1.10
2019-02-05T01:02:04.394Z,-1.30
2019-02-05T01:04:35.952Z,-1.40
2019-02-05T01:07:07.959Z,-1.60
2019-02-05T01:09:39.473Z,-1.50
2019-02-05T01:12:09.952Z,-1.50
2019-02-05T01:14:40.400Z,-1.50
2019-02-05T01:17:12.152Z,-1.50
2019-02-05T01:19:43.720Z,-1.30
2019-02-05T01:22:15.272Z,-1.10
2019-02-05T01:24:45.832Z,-1.20
2019-02-05T01:27:19.912Z,-1.10
2019-02-05T01:29:51.560Z,-1.40
2019-02-05T01:32:23.201Z,-1.60
2019-02-05T01:34:53.671Z,-1.60
2019-02-05T01:37:25.312Z,-1.60
2019-02-05T01:39:57.000Z,-1.40
2019-02-05T01:42:28.591Z,-1.10
2019-02-05T01:45:00.432Z,-1.00
2019-02-05T01:47:30.912Z,-1.10
2019-02-05T01:50:02.552Z,-1.40
2019-02-05T01:52:34.113Z,-1.20
2019-02-05T01:55:05.802Z,-1.10
2019-02-05T01:57:38.032Z,-1.50
2019-02-05T02:00:15.476Z,-1.60
2019-02-05T02:02:45.956Z,-1.30
2019-02-05T02:05:20.116Z,-1.50
2019-02-05T02:07:51.678Z,-1.50
2019-02-05T02:10:25.513Z,-1.60
2019-02-05T02:12:57.319Z,-1.70
2019-02-05T02:15:28.954Z,-1.70
2019-02-05T02:18:00.519Z,-1.60
2019-02-05T02:20:30.992Z,-1.50
2019-02-05T02:23:01.641Z,-1.60
2019-02-05T02:25:33.319Z,-1.60
2019-02-05T02:28:04.431Z,-1.60
2019-02-05T02:30:38.044Z,-1.50
2019-02-05T02:33:09.714Z,-1.60
2019-02-05T02:35:41.329Z,-1.40
2019-02-05T02:38:12.321Z,-1.30
2019-02-05T02:40:42.712Z,-1.30
2019-02-05T02:43:13.121Z,-1.30
2019-02-05T02:45:43.631Z,-1.10
2019-02-05T02:48:15.517Z,-1.20
2019-02-05T02:50:45.912Z,-1.20
2019-02-05T02:53:16.396Z,-1.30
2019-02-05T02:55:47.877Z,-1.20
2019-02-05T02:58:19.472Z,-1.20
2019-02-05T03:00:51.431Z,-1.30
2019-02-05T03:03:21.843Z,-1.20
2019-02-05T03:05:53.399Z,-1.60
2019-02-05T03:08:24.928Z,-1.50
2019-02-05T03:10:55.352Z,-1.50
2019-02-05T03:13:26.912Z,-1.60
2019-02-05T03:15:58.751Z,-1.60
2019-02-05T03:18:30.322Z,-1.70
2019-02-05T03:21:01.795Z,-1.70
2019-02-05T03:23:33.401Z,-1.70
2019-02-05T03:26:07.480Z,-1.70
2019-02-05T03:28:37.914Z,-1.60
2019-02-05T03:31:09.554Z,-1.70
2019-02-05T03:33:41.232Z,-1.60
2019-02-05T03:36:12.109Z,-1.50
2019-02-05T03:38:41.427Z,-1.50
2019-02-05T03:41:11.272Z,-1.70
2019-02-05T03:43:42.231Z,-1.70
2019-02-05T03:46:12.030Z,-1.70
2019-02-05T03:48:41.916Z,-1.80
2019-02-05T03:51:19.161Z,-1.60
2019-02-05T03:53:52.191Z,-1.70
2019-02-05T03:56:37.996Z,-1.70
2019-02-05T03:59:27.117Z,-1.80
2019-02-05T04:02:12.477Z,-1.80
2019-02-05T04:05:06.084Z,-1.80
2019-02-05T04:07:51.943Z,-1.90
2019-02-05T04:10:32.196Z,-1.70
2019-02-05T04:13:22.312Z,-1.80
2019-02-05T04:16:08.402Z,-1.80
2019-02-05T04:18:54.476Z,-1.80
2019-02-05T04:21:37.319Z,-1.80
2019-02-05T04:24:20.308Z,-1.80
2019-02-05T04:27:06.074Z,-1.80
2019-02-05T04:30:01.205Z,-1.90
2019-02-05T04:32:36.832Z,-1.90
2019-02-05T04:36:25.719Z,-1.90
2019-02-05T04:39:13.564Z,-1.90
2019-02-05T04:41:47.832Z,-1.90
2019-02-05T04:44:34.995Z,-2.00
2019-02-05T04:47:40.948Z,-1.90
2019-02-05T04:50:26.510Z,-1.90
2019-02-05T04:53:09.559Z,-2.00
2019-02-05T04:55:55.685Z,-1.90
2019-02-05T04:58:47.756Z,-1.90
2019-02-05T05:01:27.517Z,-1.70
2019-02-05T05:04:05.515Z,-1.80
2019-02-05T05:07:12.356Z,-1.90
2019-02-05T05:09:57.560Z,-2.00
2019-02-05T05:12:29.158Z,-1.70
2019-02-05T05:15:00.040Z,-1.90
2019-02-05T05:17:30.988Z,-2.00
2019-02-05T05:20:01.921Z,-2.10
2019-02-05T05:22:32.829Z,-2.00
2019-02-05T05:25:04.316Z,-2.10
2019-02-05T05:27:34.118Z,-2.10
2019-02-05T05:30:06.077Z,-2.00
2019-02-05T05:32:35.958Z,-2.00
2019-02-05T05:35:09.236Z,-2.10
2019-02-05T05:37:40.719Z,-2.10
2019-02-05T05:40:14.269Z,-2.10
2019-02-05T05:42:45.197Z,-2.10
2019-02-05T05:45:18.067Z,-2.10
2019-02-05T05:47:48.877Z,-2.10
2019-02-05T05:50:21.312Z,-2.10
2019-02-05T05:52:51.951Z,-2.10
2019-02-05T05:55:22.911Z,-2.10
2019-02-05T05:57:52.806Z,-2.10
2019-02-05T06:00:22.195Z,-2.10
2019-02-05T06:02:53.157Z,-2.10
2019-02-05T06:05:23.042Z,-2.10
2019-02-05T06:07:54.197Z,-2.10
2019-02-05T06:10:23.963Z,-2.10
2019-02-05T06:12:54.796Z,-2.00
2019-02-05T06:15:24.077Z,-2.10
2019-02-05T06:17:57.628Z,-2.00
2019-02-05T06:20:28.510Z,-2.00
2019-02-05T06:22:59.380Z,-2.00
2019-02-05T06:25:29.151Z,-2.00
2019-02-05T06:28:00.069Z,-2.00
2019-02-05T06:30:30.956Z,-2.00
2019-02-05T06:33:02.363Z,-2.00
2019-02-05T06:35:32.605Z,-1.90
2019-02-05T06:38:02.469Z,-2.00
2019-02-05T06:40:33.390Z,-2.00
2019-02-05T06:43:04.268Z,-1.90
2019-02-05T06:45:35.109Z,-2.00
2019-02-05T06:48:05.953Z,-2.00
2019-02-05T06:50:36.189Z,-2.00
2019-02-05T06:53:07.116Z,-1.90
2019-02-05T06:55:37.956Z,-1.90
2019-02-05T06:58:09.107Z,-1.90
2019-02-05T07:00:39.996Z,-1.90
2019-02-05T07:03:10.935Z,-1.90
2019-02-05T07:05:40.765Z,-1.90
2019-02-05T07:08:11.629Z,-1.90
2019-02-05T07:10:41.468Z,-1.90
2019-02-05T07:13:12.393Z,-1.90
2019-02-05T07:15:43.309Z,-1.80
2019-02-05T07:18:14.798Z,-1.80
2019-02-05T07:20:45.676Z,-1.80
2019-02-05T07:23:15.509Z,-1.80
2019-02-05T07:25:46.389Z,-1.80
2019-02-05T07:28:17.308Z,-1.70
2019-02-05T07:30:48.237Z,-1.70
2019-02-05T07:33:19.397Z,-1.70
2019-02-05T07:35:49.267Z,-1.60
2019-02-05T07:38:20.237Z,-1.60
2019-02-05T07:40:51.078Z,-1.60
2019-02-05T07:43:22.028Z,-1.60
2019-02-05T07:45:52.909Z,-1.60
2019-02-05T07:48:23.792Z,-1.50
2019-02-05T07:50:54.668Z,-1.50
2019-02-05T07:53:25.638Z,-1.50
2019-02-05T07:55:57.356Z,-1.50
2019-02-05T07:58:27.228Z,-1.50
2019-02-05T08:00:57.036Z,-1.40
2019-02-05T08:03:26.896Z,-1.40
2019-02-05T08:05:57.956Z,-1.30
2019-02-05T08:08:28.921Z,-1.30
2019-02-05T08:10:59.797Z,-1.40
2019-02-05T08:13:29.637Z,-1.30
2019-02-05T08:15:59.517Z,-1.30
2019-02-05T08:18:30.476Z,-1.30
2019-02-05T08:21:03.684Z,-1.30
2019-02-05T08:23:34.549Z,-1.30
2019-02-05T08:26:11.604Z,-1.30
2019-02-05T08:28:42.384Z,-1.20
2019-02-05T08:31:13.217Z,-1.30
2019-02-05T08:33:44.014Z,-1.30
2019-02-05T08:36:13.779Z,-1.30
2019-02-05T08:38:44.549Z,-1.30
2019-02-05T08:41:14.338Z,-1.30
2019-02-05T08:43:44.053Z,-1.20
2019-02-05T08:46:14.893Z,-1.20
2019-02-05T08:48:45.694Z,-1.30
2019-02-05T08:51:16.764Z,-1.30
2019-02-05T08:53:47.578Z,-1.30
2019-02-05T08:56:18.472Z,-1.20
2019-02-05T08:58:48.193Z,-1.20
2019-02-05T09:01:19.024Z,-1.20
2019-02-05T09:03:49.813Z,-1.20
2019-02-05T09:06:20.859Z,-1.20
2019-02-05T09:08:50.589Z,-1.20
2019-02-05T09:11:21.461Z,-1.20
2019-02-05T09:13:51.196Z,-1.30
2019-02-05T09:16:20.974Z,-1.20
2019-02-05T09:18:51.792Z,-1.10
2019-02-05T09:21:22.881Z,-1.20
2019-02-05T09:23:53.621Z,-1.20
2019-02-05T09:26:24.469Z,-1.20
2019-02-05T09:28:55.972Z,-1.20
2019-02-05T09:31:26.812Z,-1.20
2019-02-05T09:33:57.608Z,-1.10
2019-02-05T09:36:28.424Z,-1.20
2019-02-05T09:38:59.176Z,-1.20
2019-02-05T09:41:30.586Z,-1.10
2019-02-05T09:44:01.381Z,-1.00
2019-02-05T09:46:31.179Z,-1.00
2019-02-05T09:49:01.992Z,-1.10
2019-02-05T09:51:32.779Z,-1.00
2019-02-05T09:54:03.659Z,-1.00
2019-02-05T09:56:33.504Z,-0.90
2019-02-05T09:59:04.425Z,-0.90
2019-02-05T10:01:35.257Z,-1.00
2019-02-05T10:04:06.504Z,-0.90
2019-02-05T10:06:37.429Z,-0.90
2019-02-05T10:09:10.102Z,-0.90
2019-02-05T10:11:40.908Z,-0.80
2019-02-05T10:14:11.708Z,-0.70
2019-02-05T10:16:42.694Z,-0.80
2019-02-05T10:19:15.212Z,-0.60
2019-02-05T10:21:46.053Z,-0.40
2019-02-05T10:24:17.744Z,-0.60
2019-02-05T10:26:48.916Z,-0.70
2019-02-05T10:29:18.722Z,-0.60
2019-02-05T10:31:47.884Z,-0.60
2019-02-05T10:34:18.708Z,-0.70
2019-02-05T10:36:51.609Z,-0.70
2019-02-05T10:39:23.058Z,-0.70
2019-02-05T10:41:53.868Z,-0.60
2019-02-05T10:44:24.779Z,-0.60
2019-02-05T10:46:55.869Z,-0.70
2019-02-05T10:49:25.660Z,-0.50
2019-02-05T10:51:56.493Z,-0.40
2019-02-05T10:54:27.921Z,-0.50
2019-02-05T10:56:57.696Z,-0.40
2019-02-05T10:59:29.932Z,-0.40
2019-02-05T11:02:00.133Z,-0.50
2019-02-05T11:04:29.934Z,-0.40
2019-02-05T11:07:00.784Z,-0.40
2019-02-05T11:09:31.573Z,-0.40
2019-02-05T11:12:02.382Z,-0.30
2019-02-05T11:14:33.215Z,-0.30
2019-02-05T11:17:04.372Z,-0.30
2019-02-05T11:19:35.188Z,-0.20
2019-02-05T11:22:06.059Z,-0.10
2019-02-05T11:24:37.489Z,-0.10
2019-02-05T11:27:08.424Z,-0.20
2019-02-05T11:29:39.304Z,-0.20
2019-02-05T11:32:09.187Z,-0.10
2019-02-05T11:34:38.968Z,-0.20
2019-02-05T11:37:09.935Z,-0.20
2019-02-05T11:39:40.781Z,-0.20
2019-02-05T11:42:12.939Z,-0.10
2019-02-05T11:44:42.673Z,0.00
2019-02-05T11:47:13.438Z,0.00
2019-02-05T11:49:43.875Z,0.00
2019-02-05T11:52:14.698Z,0.00
2019-02-05T11:54:45.452Z,0.00
2019-02-05T11:57:17.820Z,0.00
2019-02-05T11:59:48.981Z,0.00
2019-02-05T12:02:19.814Z,0.10
2019-02-05T12:04:49.612Z,0.20
2019-02-05T12:07:22.022Z,0.30
2019-02-05T12:09:53.537Z,0.40
2019-02-05T12:12:24.345Z,0.30
2019-02-05T12:14:55.508Z,0.10
2019-02-05T12:17:26.904Z,0.10
2019-02-05T12:20:05.537Z,0.20
2019-02-05T12:22:35.257Z,0.20
2019-02-05T12:25:06.156Z,0.20
2019-02-05T12:27:36.972Z,0.50
2019-02-05T12:30:11.064Z,0.50
2019-02-05T12:32:41.816Z,0.60
2019-02-05T12:35:12.605Z,0.80
2019-02-05T12:37:44.233Z,0.60
2019-02-05T12:40:18.866Z,0.60
2019-02-05T12:42:49.786Z,0.70
2019-02-05T12:45:31.336Z,1.00
2019-02-05T12:48:02.780Z,0.90
2019-02-05T12:50:34.899Z,0.70
2019-02-05T12:53:06.016Z,0.60
2019-02-05T12:55:36.877Z,0.60
2019-02-05T12:58:08.470Z,0.60
2019-02-05T13:00:40.740Z,0.50
2019-02-05T13:03:11.265Z,0.70
2019-02-05T13:05:43.057Z,0.50
2019-02-05T13:08:14.586Z,0.50
2019-02-05T13:10:46.584Z,0.50
2019-02-05T13:13:18.231Z,0.40
2019-02-05T13:15:49.832Z,0.60
2019-02-05T13:18:21.216Z,0.50
2019-02-05T13:20:52.066Z,0.60
2019-02-05T13:23:22.936Z,0.50
2019-02-05T13:25:53.735Z,0.80
2019-02-05T13:28:24.657Z,0.70
2019-02-05T13:30:54.385Z,0.80
2019-02-05T13:33:25.339Z,0.70
2019-02-05T13:35:56.177Z,0.80
2019-02-05T13:38:27.668Z,0.80
2019-02-05T13:40:58.424Z,0.60
2019-02-05T13:43:29.355Z,0.50
2019-02-05T13:45:59.152Z,0.60
2019-02-05T13:48:28.941Z,0.50
2019-02-05T13:51:02.461Z,0.50
2019-02-05T13:53:35.336Z,0.70
2019-02-05T13:56:08.474Z,0.70
2019-02-05T13:58:42.459Z,0.70
2019-02-05T14:01:20.164Z,0.70
2019-02-05T14:03:46.465Z,0.80
2019-02-05T14:06:17.256Z,1.10
2019-02-05T14:08:47.152Z,1.00
2019-02-05T14:11:18.140Z,1.00
2019-02-05T14:13:49.071Z,1.20
2019-02-05T14:16:20.819Z,1.10
2019-02-05T14:18:55.382Z,1.00
2019-02-05T14:21:22.316Z,1.10
2019-02-05T14:23:52.744Z,1.00
2019-02-05T14:26:22.085Z,0.90
2019-02-05T14:28:56.226Z,0.90
2019-02-05T14:31:31.379Z,1.00
2019-02-05T14:33:59.652Z,0.90
2019-02-05T14:36:29.743Z,0.80
2019-02-05T14:39:00.713Z,0.80
2019-02-05T14:41:32.970Z,0.80
2019-02-05T14:44:05.456Z,0.70
2019-02-05T14:46:36.758Z,0.60
2019-02-05T14:49:06.135Z,0.70
2019-02-05T14:51:37.118Z,0.70
2019-02-05T14:54:08.200Z,0.60
2019-02-05T14:56:39.159Z,0.60
2019-02-05T14:59:09.037Z,0.60
2019-02-05T15:01:43.384Z,0.60
2019-02-05T15:04:14.517Z,0.50
2019-02-05T15:06:45.424Z,0.40
2019-02-05T15:09:16.862Z,0.30
2019-02-05T15:11:50.287Z,0.20
2019-02-05T15:14:22.109Z,0.20
2019-02-05T15:16:54.059Z,0.10
2019-02-05T15:19:25.042Z,0.10
2019-02-05T15:21:55.873Z,0.10
2019-02-05T15:24:37.133Z,0.00
2019-02-05T15:27:02.422Z,-0.10
2019-02-05T15:29:35.301Z,-0.10
2019-02-05T15:32:06.261Z,-0.10
2019-02-05T15:34:39.145Z,-0.20
2019-02-05T15:37:09.935Z,-0.20
2019-02-05T15:39:42.323Z,-0.30
2019-02-05T15:42:13.180Z,-0.30
2019-02-05T15:44:45.603Z,-0.30
2019-02-05T15:47:18.705Z,-0.30
2019-02-05T15:49:48.487Z,-0.30
2019-02-05T15:52:19.674Z,-0.30
2019-02-05T16:18:36.791Z,-0.60
2019-02-05T16:21:09.110Z,-0.60
2019-02-05T16:23:45.748Z,-0.60
2019-02-05T16:26:20.405Z,-0.50
2019-02-05T16:28:54.228Z,-0.60
2019-02-05T16:31:28.671Z,-0.60
2019-02-05T16:34:00.191Z,-0.50
2019-02-05T16:36:32.270Z,-0.60
2019-02-05T16:39:03.928Z,-0.60
2019-02-05T16:41:34.848Z,-0.70
2019-02-05T16:44:08.268Z,-0.50
2019-02-05T16:46:39.894Z,-0.80
2019-02-05T16:49:12.430Z,-0.70
2019-02-05T16:51:42.949Z,-0.80
2019-02-05T16:54:16.956Z,-0.80
2019-02-05T16:56:51.011Z,-0.80
2019-02-05T16:59:22.708Z,-0.80
2019-02-05T17:01:57.080Z,-0.90
2019-02-05T17:04:29.376Z,-0.90
2019-02-05T17:07:09.045Z,-0.90
2019-02-05T17:09:58.521Z,-0.90
2019-02-05T17:12:35.080Z,-0.80
2019-02-05T17:15:10.802Z,-0.80
2019-02-05T17:17:46.173Z,-0.80
2019-02-05T17:20:31.035Z,-0.80
2019-02-05T17:23:05.896Z,-0.80
2019-02-05T17:25:40.352Z,-0.80
2019-02-05T17:31:04.415Z,-0.60
2019-02-05T17:33:37.378Z,-0.60
2019-02-05T17:36:13.372Z,-0.40
2019-02-05T17:38:47.691Z,-0.30
2019-02-05T17:41:20.193Z,-0.30
2019-02-05T17:43:53.271Z,-0.30
2019-02-05T17:46:27.767Z,-0.30
2019-02-05T17:49:12.233Z,-0.30
2019-02-05T17:51:44.112Z,-0.30
2019-02-05T17:54:17.213Z,-0.30
2019-02-05T17:56:50.321Z,-0.40
2019-02-05T17:59:23.302Z,-0.40
2019-02-05T18:02:00.242Z,-0.60
2019-02-05T18:04:32.258Z,-0.50
2019-02-05T18:07:06.411Z,-0.60
2019-02-05T18:09:37.507Z,-0.60
2019-02-05T18:12:11.856Z,-0.70
2019-02-05T18:14:46.061Z,-0.70
2019-02-05T18:17:19.290Z,-0.70
2019-02-05T18:19:50.935Z,-0.70
2019-02-05T18:22:23.143Z,-0.70
2019-02-05T18:24:53.735Z,-1.00
2019-02-05T18:27:30.755Z,-1.10
2019-02-05T18:30:01.171Z,-1.10
2019-02-05T18:32:34.254Z,-1.00
2019-02-05T18:35:08.480Z,-1.00
2019-02-05T18:37:42.337Z,-1.30
2019-02-05T18:40:17.774Z,-1.40
2019-02-05T18:42:50.841Z,-1.50
2019-02-05T18:45:24.216Z,-1.90
2019-02-05T18:47:57.213Z,-1.90
2019-02-05T18:50:35.787Z,-1.70
2019-02-05T18:53:14.176Z,-1.50
2019-02-05T18:55:58.533Z,-1.50
2019-02-05T18:58:35.099Z,-1.50
2019-02-05T19:01:08.632Z,-1.50
2019-02-05T19:03:41.652Z,-1.40
2019-02-05T19:06:14.654Z,-1.40
2019-02-05T19:08:47.774Z,-1.40
2019-02-05T19:11:24.133Z,-1.30
2019-02-05T19:13:59.280Z,-1.40
2019-02-05T19:16:30.816Z,-1.30
2019-02-05T19:19:14.155Z,-1.30
2019-02-05T19:21:39.471Z,-1.30
2019-02-05T19:24:15.588Z,-1.30
2019-02-05T19:26:47.154Z,-1.40
2019-02-05T19:29:20.692Z,-1.40
2019-02-05T19:31:54.296Z,-1.40
2019-02-05T19:34:28.427Z,-1.40
2019-02-05T19:37:02.587Z,-1.40
2019-02-05T19:39:36.037Z,-1.40
2019-02-05T19:42:09.171Z,-1.40
2019-02-05T19:44:48.397Z,-1.40
2019-02-05T19:47:18.705Z,-1.40
2019-02-05T19:49:54.405Z,-1.30
2019-02-05T19:52:27.786Z,-1.40
2019-02-05T19:55:03.508Z,-1.40
2019-02-05T19:57:39.826Z,-1.40
2019-02-05T20:00:36.460Z,-1.50
2019-02-05T20:03:08.091Z,-1.50
2019-02-05T20:05:46.949Z,-1.50
2019-02-05T20:08:22.645Z,-1.50
2019-02-05T20:11:07.207Z,-1.60
2019-02-05T20:13:41.782Z,-1.70
2019-02-05T20:16:17.002Z,-1.70
2019-02-05T20:18:50.028Z,-1.60
2019-02-05T20:21:22.982Z,-1.80
2019-02-05T20:23:59.698Z,-1.70
2019-02-05T20:26:31.817Z,-1.80
2019-02-05T20:29:07.294Z,-1.70
2019-02-05T20:31:40.094Z,-1.70
2019-02-05T20:34:11.992Z,-1.70
2019-02-05T20:36:48.549Z,-1.70
2019-02-05T20:39:19.687Z,-1.70
2019-02-05T20:41:53.316Z,-1.90
2019-02-05T20:44:25.961Z,-1.80
2019-02-05T20:46:59.057Z,-1.90
2019-02-05T20:49:30.961Z,-1.90
2019-02-05T20:52:06.627Z,-1.70
2019-02-05T20:54:40.432Z,-1.70
2019-02-05T20:57:13.417Z,-1.60
2019-02-05T20:59:45.173Z,-1.50
2019-02-05T21:02:17.055Z,-1.50
2019-02-05T21:04:51.531Z,-1.50
2019-02-05T21:07:23.558Z,-1.40
2019-02-05T21:09:55.133Z,-1.40
2019-02-05T21:12:26.070Z,-1.40
2019-02-05T21:15:03.134Z,-1.30
2019-02-05T21:17:33.539Z,-1.30
2019-02-05T21:20:05.174Z,-1.30
2019-02-05T21:22:36.711Z,-1.30
2019-02-05T21:25:13.709Z,-1.40
2019-02-05T21:27:45.711Z,-1.30
2019-02-05T21:30:28.300Z,-1.30
2019-02-05T21:32:58.752Z,-1.30
2019-02-05T21:35:33.101Z,-1.30
2019-02-05T21:38:04.900Z,-1.30
2019-02-05T21:40:36.417Z,-1.30
2019-02-05T21:43:07.981Z,-1.30
2019-02-05T21:45:39.493Z,-1.20
2019-02-05T21:48:11.052Z,-1.20
2019-02-05T21:50:42.811Z,-1.20
2019-02-05T21:53:14.328Z,-1.20
2019-02-05T21:55:46.299Z,-1.20
2019-02-05T21:58:17.619Z,-1.20
2019-02-05T22:00:48.014Z,-1.20
2019-02-05T22:03:18.467Z,-1.20
2019-02-05T22:05:50.207Z,-1.20
2019-02-05T22:08:21.577Z,-1.20
2019-02-05T22:10:52.947Z,-1.20
2019-02-05T22:13:24.247Z,-1.20
2019-02-05T22:15:56.179Z,-1.20
2019-02-05T22:18:28.130Z,-1.20
2019-02-05T22:20:59.498Z,-1.10
2019-02-05T22:23:30.751Z,-1.20
2019-02-05T22:26:01.971Z,-1.20
2019-02-05T22:28:33.212Z,-1.20
2019-02-05T22:31:04.327Z,-1.20
2019-02-05T22:33:35.579Z,-1.10
2019-02-05T22:36:07.613Z,-1.10
2019-02-05T22:38:38.819Z,-1.10
2019-02-05T22:41:10.013Z,-1.10
2019-02-05T22:43:40.093Z,-1.10
2019-02-05T22:46:10.089Z,-1.10
2019-02-05T22:48:41.660Z,-1.10
2019-02-05T22:51:12.278Z,-1.10
2019-02-05T22:53:42.420Z,-1.10
2019-02-05T22:56:13.683Z,-1.10
2019-02-05T22:58:45.287Z,-1.10
2019-02-05T23:01:33.384Z,-1.20
2019-02-05T23:04:08.327Z,-1.10
2019-02-05T23:06:51.932Z,-1.10
2019-02-05T23:09:28.121Z,-1.10
2019-02-05T23:12:23.859Z,-1.10
2019-02-05T23:15:07.850Z,-1.00
2019-02-05T23:17:39.618Z,-1.00
2019-02-05T23:20:13.972Z,-1.00
2019-02-05T23:22:45.160Z,-1.00
2019-02-05T23:25:16.413Z,-1.00
2019-02-05T23:27:47.648Z,-1.00
2019-02-05T23:30:23.960Z,-1.00
2019-02-05T23:32:55.078Z,-1.00
2019-02-05T23:35:26.981Z,-1.00
2019-02-05T23:37:58.171Z,-1.00
2019-02-05T23:40:29.362Z,-1.00
2019-02-05T23:43:00.535Z,-1.00
2019-02-05T23:45:32.380Z,-1.00
2019-02-05T23:48:02.485Z,-1.00
2019-02-05T23:50:33.659Z,-1.00
2019-02-05T23:53:04.816Z,-1.00
2019-02-05T23:55:36.219Z,-1.00
2019-02-05T23:58:07.457Z,-1.00
